createdAt,value
2019-06-20T00:00:41.096Z,994.44
2019-06-20T00:01:41.085Z,994.39
2019-06-20T00:02:41.068Z,994.41
2019-06-20T00:03:41.152Z,994.41
2019-06-20T00:04:41.051Z,994.40
2019-06-20T00:05:41.038Z,994.39
2019-06-20T00:06:41.033Z,994.33
2019-06-20T00:07:41.018Z,994.36
2019-06-20T00:08:41.789Z,994.33
2019-06-20T00:09:40.993Z,994.37
2019-06-20T00:10:40.982Z,994.35
2019-06-20T00:11:41.005Z,994.35
2019-06-20T00:12:40.965Z,994.34
2019-06-20T00:13:40.983Z,994.36
2019-06-20T00:14:40.973Z,994.34
2019-06-20T00:15:40.934Z,994.35
2019-06-20T00:16:40.927Z,994.35
2019-06-20T00:17:40.910Z,994.40
2019-06-20T00:18:40.923Z,994.43
2019-06-20T00:19:40.892Z,994.44
2019-06-20T00:20:40.872Z,994.44
2019-06-20T00:21:40.867Z,994.53
2019-06-20T00:22:40.868Z,994.54
2019-06-20T00:23:40.861Z,994.58
2019-06-20T00:24:40.837Z,994.59
2019-06-20T00:25:40.824Z,994.58
2019-06-20T00:26:40.812Z,994.55
2019-06-20T00:27:40.804Z,994.63
2019-06-20T00:28:40.806Z,994.53
2019-06-20T00:29:40.779Z,994.55
2019-06-20T00:30:40.781Z,994.58
2019-06-20T00:31:40.766Z,994.58
2019-06-20T00:32:40.759Z,994.60
2019-06-20T00:33:40.767Z,994.59
2019-06-20T00:34:40.725Z,994.61
2019-06-20T00:35:40.719Z,994.57
2019-06-20T00:36:40.708Z,994.61
2019-06-20T00:37:40.694Z,994.58
2019-06-20T00:38:40.699Z,994.57
2019-06-20T00:39:40.683Z,994.53
2019-06-20T00:40:40.657Z,994.54
2019-06-20T00:41:40.648Z,994.59
2019-06-20T00:42:40.640Z,994.57
2019-06-20T00:43:40.625Z,994.53
2019-06-20T00:44:40.650Z,994.50
2019-06-20T00:45:40.606Z,994.56
2019-06-20T00:46:40.599Z,994.61
2019-06-20T00:47:40.588Z,994.60
2019-06-20T00:48:40.569Z,994.62
2019-06-20T00:49:40.601Z,994.63
2019-06-20T00:50:40.563Z,994.71
2019-06-20T00:51:40.546Z,994.71
2019-06-20T00:52:40.539Z,994.76
2019-06-20T00:53:40.523Z,994.70
2019-06-20T00:54:40.536Z,994.71
2019-06-20T00:55:40.493Z,994.71
2019-06-20T00:56:40.490Z,994.72
2019-06-20T00:57:40.477Z,994.70
2019-06-20T00:58:40.486Z,994.75
2019-06-20T00:59:40.490Z,994.72
2019-06-20T01:00:40.440Z,994.74
2019-06-20T01:01:40.431Z,994.78
2019-06-20T01:02:40.439Z,994.79
2019-06-20T01:03:40.407Z,994.81
2019-06-20T01:04:40.503Z,994.78
2019-06-20T01:05:40.411Z,994.79
2019-06-20T01:06:40.375Z,994.82
2019-06-20T01:07:40.363Z,994.80
2019-06-20T01:08:40.362Z,994.78
2019-06-20T01:09:40.369Z,994.83
2019-06-20T01:10:40.363Z,994.81
2019-06-20T01:11:40.327Z,994.81
2019-06-20T01:12:40.320Z,994.81
2019-06-20T01:13:40.303Z,994.77
2019-06-20T01:14:40.308Z,994.77
2019-06-20T01:15:40.370Z,994.75
2019-06-20T01:16:40.274Z,994.76
2019-06-20T01:17:40.261Z,994.72
2019-06-20T01:18:40.251Z,994.73
2019-06-20T01:19:40.262Z,994.73
2019-06-20T01:20:40.225Z,994.72
2019-06-20T01:21:40.216Z,994.79
2019-06-20T01:22:40.214Z,994.76
2019-06-20T01:23:40.199Z,994.76
2019-06-20T01:24:40.233Z,994.78
2019-06-20T01:25:40.183Z,994.81
2019-06-20T01:26:40.170Z,994.81
2019-06-20T01:27:40.155Z,994.80
2019-06-20T01:28:40.162Z,994.84
2019-06-20T01:29:40.159Z,994.84
2019-06-20T01:30:40.122Z,994.85
2019-06-20T01:31:40.114Z,994.92
2019-06-20T01:32:40.116Z,994.97
2019-06-20T01:33:40.090Z,994.90
2019-06-20T01:34:40.077Z,994.92
2019-06-20T01:35:40.065Z,994.89
2019-06-20T01:36:40.061Z,994.92
2019-06-20T01:37:40.071Z,994.99
2019-06-20T01:38:40.041Z,994.98
2019-06-20T01:39:40.020Z,994.97
2019-06-20T01:40:40.018Z,994.99
2019-06-20T01:41:40.006Z,995.00
2019-06-20T01:42:40.017Z,995.06
2019-06-20T01:43:49.964Z,994.99
2019-06-20T01:44:40.966Z,994.98
2019-06-20T01:45:39.962Z,994.97
2019-06-20T01:46:39.949Z,995.01
2019-06-20T01:47:39.936Z,994.98
2019-06-20T01:48:39.968Z,994.94
2019-06-20T01:49:39.921Z,995.00
2019-06-20T01:50:39.935Z,994.98
2019-06-20T01:51:39.901Z,994.94
2019-06-20T01:52:39.883Z,994.94
2019-06-20T01:53:39.908Z,994.91
2019-06-20T01:54:39.869Z,994.90
2019-06-20T01:55:39.887Z,994.89
2019-06-20T01:56:39.840Z,994.87
2019-06-20T01:57:39.857Z,994.87
2019-06-20T01:58:39.895Z,994.83
2019-06-20T01:59:39.808Z,994.83
2019-06-20T02:00:39.805Z,994.79
2019-06-20T02:01:39.799Z,994.80
2019-06-20T02:02:39.789Z,994.79
2019-06-20T02:03:39.810Z,994.79
2019-06-20T02:04:39.752Z,994.81
2019-06-20T02:05:39.744Z,994.87
2019-06-20T02:06:39.753Z,994.84
2019-06-20T02:07:39.721Z,994.83
2019-06-20T02:08:39.736Z,994.83
2019-06-20T02:09:39.704Z,994.86
2019-06-20T02:10:39.704Z,994.86
2019-06-20T02:11:39.697Z,994.92
2019-06-20T02:12:39.699Z,994.87
2019-06-20T02:13:39.790Z,994.87
2019-06-20T02:14:39.652Z,994.90
2019-06-20T02:15:39.644Z,994.92
2019-06-20T02:16:39.631Z,994.92
2019-06-20T02:17:39.643Z,994.92
2019-06-20T02:18:39.634Z,994.95
2019-06-20T02:19:39.593Z,994.95
2019-06-20T02:20:39.606Z,995.01
2019-06-20T02:21:39.578Z,994.96
2019-06-20T02:22:39.566Z,994.97
2019-06-20T02:23:39.577Z,994.93
2019-06-20T02:24:39.546Z,994.94
2019-06-20T02:25:39.532Z,995.00
2019-06-20T02:26:39.524Z,994.97
2019-06-20T02:27:39.518Z,994.92
2019-06-20T02:28:39.516Z,994.94
2019-06-20T02:29:39.494Z,994.96
2019-06-20T02:30:39.482Z,994.93
2019-06-20T02:31:39.468Z,995.01
2019-06-20T02:32:39.464Z,994.97
2019-06-20T02:33:39.469Z,994.97
2019-06-20T02:34:39.453Z,995.01
2019-06-20T02:35:39.433Z,995.04
2019-06-20T02:36:39.416Z,995.04
2019-06-20T02:37:39.407Z,995.06
2019-06-20T02:38:39.419Z,995.05
2019-06-20T02:39:39.383Z,995.06
2019-06-20T02:40:39.377Z,995.08
2019-06-20T02:41:39.365Z,995.10
2019-06-20T02:42:39.349Z,995.08
2019-06-20T02:43:39.359Z,995.11
2019-06-20T02:44:39.344Z,995.13
2019-06-20T02:45:39.335Z,995.11
2019-06-20T02:46:39.309Z,995.11
2019-06-20T02:47:39.320Z,995.18
2019-06-20T02:48:39.307Z,995.21
2019-06-20T02:49:39.274Z,995.24
2019-06-20T02:50:39.266Z,995.24
2019-06-20T02:51:39.254Z,995.27
2019-06-20T02:52:39.245Z,995.27
2019-06-20T02:53:39.257Z,995.29
2019-06-20T02:54:39.222Z,995.33
2019-06-20T02:55:39.215Z,995.34
2019-06-20T02:56:39.193Z,995.35
2019-06-20T02:57:39.207Z,995.35
2019-06-20T02:58:39.196Z,995.36
2019-06-20T02:59:39.171Z,995.39
2019-06-20T03:00:39.152Z,995.41
2019-06-20T03:01:39.144Z,995.37
2019-06-20T03:02:39.129Z,995.41
2019-06-20T03:03:39.135Z,995.47
2019-06-20T03:04:39.115Z,995.47
2019-06-20T03:05:39.101Z,995.51
2019-06-20T03:06:39.090Z,995.52
2019-06-20T03:07:39.081Z,995.50
2019-06-20T03:08:39.083Z,995.51
2019-06-20T03:09:39.055Z,995.57
2019-06-20T03:10:39.061Z,995.57
2019-06-20T03:11:39.029Z,995.60
2019-06-20T03:12:39.044Z,995.57
2019-06-20T03:13:39.014Z,995.70
2019-06-20T03:14:45.415Z,995.62
2019-06-20T03:15:39.984Z,995.67
2019-06-20T03:16:38.980Z,995.65
2019-06-20T03:17:38.984Z,995.69
2019-06-20T03:18:38.958Z,995.69
2019-06-20T03:19:38.947Z,995.70
2019-06-20T03:20:38.949Z,995.70
2019-06-20T03:21:38.932Z,995.74
2019-06-20T03:22:38.952Z,995.72
2019-06-20T03:23:38.905Z,995.76
2019-06-20T03:24:38.890Z,995.77
2019-06-20T03:25:38.875Z,995.75
2019-06-20T03:26:38.865Z,995.78
2019-06-20T03:27:38.874Z,995.79
2019-06-20T03:28:38.847Z,995.79
2019-06-20T03:29:38.834Z,995.84
2019-06-20T03:30:38.824Z,995.83
2019-06-20T03:31:38.807Z,995.81
2019-06-20T03:32:38.820Z,995.82
2019-06-20T03:33:38.797Z,995.84
2019-06-20T03:34:38.781Z,995.84
2019-06-20T03:35:38.770Z,995.90
2019-06-20T03:36:38.750Z,995.92
2019-06-20T03:37:38.767Z,995.94
2019-06-20T03:38:38.735Z,995.98
2019-06-20T03:39:38.722Z,995.96
2019-06-20T03:40:38.713Z,995.99
2019-06-20T03:41:38.705Z,995.98
2019-06-20T03:42:38.715Z,995.99
2019-06-20T03:43:38.704Z,996.00
2019-06-20T03:44:38.670Z,995.97
2019-06-20T03:45:38.653Z,995.97
2019-06-20T03:46:38.647Z,995.97
2019-06-20T03:47:38.661Z,995.97
2019-06-20T03:48:38.618Z,995.98
2019-06-20T03:49:38.609Z,995.95
2019-06-20T03:50:38.599Z,995.99
2019-06-20T03:51:38.584Z,995.93
2019-06-20T03:52:38.600Z,995.95
2019-06-20T03:53:38.570Z,995.92
2019-06-20T03:54:38.560Z,995.93
2019-06-20T03:55:38.554Z,995.97
2019-06-20T03:56:38.538Z,995.99
2019-06-20T03:57:38.541Z,995.95
2019-06-20T03:58:38.531Z,995.95
2019-06-20T03:59:38.499Z,995.97
2019-06-20T04:00:38.500Z,995.94
2019-06-20T04:01:38.479Z,995.97
2019-06-20T04:02:38.485Z,995.99
2019-06-20T04:03:38.453Z,995.99
2019-06-20T04:04:38.458Z,996.03
2019-06-20T04:05:38.450Z,996.01
2019-06-20T04:06:38.488Z,996.00
2019-06-20T04:07:38.577Z,996.01
2019-06-20T04:08:38.398Z,996.00
2019-06-20T04:09:38.420Z,996.01
2019-06-20T04:10:38.382Z,996.03
2019-06-20T04:11:38.363Z,996.03
2019-06-20T04:12:38.362Z,996.03
2019-06-20T04:13:38.369Z,996.09
2019-06-20T04:14:38.337Z,996.08
2019-06-20T04:15:38.330Z,996.13
2019-06-20T04:16:38.312Z,996.13
2019-06-20T04:17:38.300Z,996.20
2019-06-20T04:18:38.311Z,996.15
2019-06-20T04:19:38.294Z,996.13
2019-06-20T04:20:38.267Z,996.11
2019-06-20T04:21:38.259Z,996.12
2019-06-20T04:22:38.266Z,996.10
2019-06-20T04:23:38.252Z,996.09
2019-06-20T04:24:38.271Z,996.11
2019-06-20T04:25:38.215Z,996.10
2019-06-20T04:26:38.203Z,996.09
2019-06-20T04:27:38.194Z,996.11
2019-06-20T04:28:38.198Z,996.13
2019-06-20T04:29:38.167Z,996.16
2019-06-20T04:30:38.157Z,996.18
2019-06-20T04:31:38.141Z,996.22
2019-06-20T04:32:38.151Z,996.23
2019-06-20T04:33:38.168Z,996.22
2019-06-20T04:34:38.112Z,996.21
2019-06-20T04:35:38.099Z,996.12
2019-06-20T04:36:38.095Z,996.17
2019-06-20T04:37:38.080Z,996.15
2019-06-20T04:38:38.092Z,996.19
2019-06-20T04:39:38.061Z,996.17
2019-06-20T04:40:38.045Z,996.21
2019-06-20T04:41:38.034Z,996.22
2019-06-20T04:42:38.039Z,996.21
2019-06-20T04:43:38.036Z,996.25
2019-06-20T04:44:38.005Z,996.27
2019-06-20T04:45:37.997Z,996.29
2019-06-20T04:46:37.982Z,996.27
2019-06-20T04:47:37.974Z,996.31
2019-06-20T04:48:37.975Z,996.30
2019-06-20T04:49:37.973Z,996.33
2019-06-20T04:50:37.939Z,996.26
2019-06-20T04:51:37.931Z,996.30
2019-06-20T04:52:37.916Z,996.31
2019-06-20T04:53:37.936Z,996.30
2019-06-20T04:54:37.894Z,996.34
2019-06-20T04:55:37.900Z,996.35
2019-06-20T04:56:37.876Z,996.37
2019-06-20T04:57:37.864Z,996.42
2019-06-20T04:58:38.071Z,996.37
2019-06-20T04:59:37.849Z,996.38
2019-06-20T05:00:37.829Z,996.41
2019-06-20T05:01:37.818Z,996.37
2019-06-20T05:02:37.810Z,996.38
2019-06-20T05:03:37.838Z,996.36
2019-06-20T05:04:37.789Z,996.39
2019-06-20T05:05:37.787Z,996.39
2019-06-20T05:06:37.759Z,996.43
2019-06-20T05:07:37.745Z,996.41
2019-06-20T05:08:37.873Z,996.42
2019-06-20T05:09:37.728Z,996.41
2019-06-20T05:10:37.718Z,996.43
2019-06-20T05:11:37.710Z,996.44
2019-06-20T05:12:37.695Z,996.45
2019-06-20T05:13:37.683Z,996.40
2019-06-20T05:14:37.690Z,996.43
2019-06-20T05:15:51.363Z,996.43
2019-06-20T05:16:38.654Z,996.47
2019-06-20T05:17:37.641Z,996.54
2019-06-20T05:18:37.650Z,996.50
2019-06-20T05:19:37.732Z,996.47
2019-06-20T05:20:37.605Z,996.49
2019-06-20T05:21:37.596Z,996.51
2019-06-20T05:22:37.590Z,996.48
2019-06-20T05:23:37.593Z,996.49
2019-06-20T05:24:37.584Z,996.51
2019-06-20T05:25:37.553Z,996.52
2019-06-20T05:26:37.541Z,996.50
2019-06-20T05:27:37.534Z,996.53
2019-06-20T05:28:37.540Z,996.51
2019-06-20T05:29:37.690Z,996.54
2019-06-20T05:30:37.503Z,996.54
2019-06-20T05:31:37.500Z,996.55
2019-06-20T05:32:37.472Z,996.58
2019-06-20T05:33:37.465Z,996.58
2019-06-20T05:34:37.624Z,996.66
2019-06-20T05:35:37.882Z,996.67
2019-06-20T05:36:37.448Z,996.65
2019-06-20T05:37:37.424Z,996.70
2019-06-20T05:38:37.411Z,996.73
2019-06-20T05:39:37.587Z,996.71
2019-06-20T05:40:37.429Z,996.74
2019-06-20T05:41:37.427Z,996.78
2019-06-20T05:42:37.368Z,996.78
2019-06-20T05:43:37.359Z,996.82
2019-06-20T05:44:37.360Z,996.77
2019-06-20T05:45:37.334Z,996.78
2019-06-20T05:46:37.334Z,996.74
2019-06-20T05:47:37.309Z,996.75
2019-06-20T05:48:37.316Z,996.74
2019-06-20T05:49:37.309Z,996.74
2019-06-20T05:50:37.335Z,996.77
2019-06-20T05:51:39.699Z,996.80
2019-06-20T05:52:37.259Z,996.78
2019-06-20T05:53:37.331Z,996.79
2019-06-20T05:54:37.257Z,996.81
2019-06-20T05:55:37.231Z,996.79
2019-06-20T05:56:37.209Z,996.76
2019-06-20T05:57:37.200Z,996.78
2019-06-20T05:58:37.191Z,996.77
2019-06-20T05:59:37.195Z,996.72
2019-06-20T06:00:37.172Z,996.74
2019-06-20T06:01:37.159Z,996.77
2019-06-20T06:02:37.386Z,996.82
2019-06-20T06:03:37.140Z,996.82
2019-06-20T06:04:37.157Z,996.84
2019-06-20T06:05:37.275Z,996.83
2019-06-20T06:06:37.165Z,996.87
2019-06-20T06:07:37.087Z,996.90
2019-06-20T06:08:37.103Z,996.90
2019-06-20T06:09:37.075Z,996.91
2019-06-20T06:10:37.077Z,996.87
2019-06-20T06:11:37.057Z,996.86
2019-06-20T06:12:37.068Z,996.82
2019-06-20T06:13:37.029Z,996.86
2019-06-20T06:14:37.043Z,996.83
2019-06-20T06:15:37.027Z,996.86
2019-06-20T06:16:36.993Z,996.88
2019-06-20T06:17:36.982Z,996.82
2019-06-20T06:18:36.976Z,996.84
2019-06-20T06:19:36.958Z,996.80
2019-06-20T06:20:36.973Z,996.81
2019-06-20T06:21:36.943Z,996.85
2019-06-20T06:22:36.934Z,996.87
2019-06-20T06:23:36.927Z,996.79
2019-06-20T06:24:36.905Z,996.82
2019-06-20T06:25:36.915Z,996.83
2019-06-20T06:26:36.894Z,996.88
2019-06-20T06:27:36.887Z,996.84
2019-06-20T06:28:36.857Z,996.83
2019-06-20T06:29:36.848Z,996.85
2019-06-20T06:30:36.857Z,996.80
2019-06-20T06:31:36.824Z,996.79
2019-06-20T06:32:40.516Z,996.82
2019-06-20T06:33:36.809Z,996.83
2019-06-20T06:34:36.796Z,996.78
2019-06-20T06:35:36.807Z,996.80
2019-06-20T06:36:36.767Z,996.86
2019-06-20T06:37:36.776Z,996.84
2019-06-20T06:38:36.751Z,996.87
2019-06-20T06:39:36.742Z,996.83
2019-06-20T06:40:36.766Z,996.88
2019-06-20T06:41:36.793Z,996.85
2019-06-20T06:42:36.706Z,996.86
2019-06-20T06:43:41.754Z,996.88
2019-06-20T06:44:37.687Z,996.82
2019-06-20T06:45:36.710Z,996.86
2019-06-20T06:46:44.922Z,996.89
2019-06-20T06:47:37.671Z,996.98
2019-06-20T06:48:36.644Z,996.86
2019-06-20T06:49:36.635Z,996.88
2019-06-20T06:50:36.655Z,996.90
2019-06-20T06:51:38.289Z,996.93
2019-06-20T06:52:36.602Z,996.90
2019-06-20T06:53:36.588Z,996.84
2019-06-20T06:54:36.577Z,996.86
2019-06-20T06:55:36.593Z,996.89
2019-06-20T06:56:36.559Z,996.89
2019-06-20T06:57:36.543Z,996.94
2019-06-20T06:58:36.546Z,996.86
2019-06-20T06:59:36.526Z,996.87
2019-06-20T07:00:37.868Z,996.86
2019-06-20T07:01:36.499Z,996.91
2019-06-20T07:02:36.500Z,996.96
2019-06-20T07:03:36.485Z,996.94
2019-06-20T07:04:36.472Z,996.96
2019-06-20T07:05:36.483Z,996.96
2019-06-20T07:06:36.451Z,996.99
2019-06-20T07:07:36.440Z,996.97
2019-06-20T07:08:36.422Z,996.95
2019-06-20T07:09:36.414Z,996.96
2019-06-20T07:10:36.405Z,996.94
2019-06-20T07:11:36.410Z,996.99
2019-06-20T07:12:36.394Z,997.00
2019-06-20T07:13:36.428Z,997.01
2019-06-20T07:14:36.364Z,996.95
2019-06-20T07:15:36.566Z,996.98
2019-06-20T07:16:36.378Z,996.98
2019-06-20T07:17:36.334Z,997.01
2019-06-20T07:18:36.326Z,997.02
2019-06-20T07:19:36.337Z,997.02
2019-06-20T07:20:36.319Z,997.02
2019-06-20T07:21:36.300Z,997.03
2019-06-20T07:22:36.277Z,996.97
2019-06-20T07:23:36.270Z,996.98
2019-06-20T07:24:36.267Z,996.98
2019-06-20T07:25:36.251Z,996.96
2019-06-20T07:26:36.277Z,996.93
2019-06-20T07:27:36.228Z,996.93
2019-06-20T07:28:36.212Z,996.85
2019-06-20T07:29:36.200Z,996.90
2019-06-20T07:30:36.197Z,996.86
2019-06-20T07:31:36.206Z,996.86
2019-06-20T07:32:36.164Z,996.81
2019-06-20T07:33:36.154Z,996.84
2019-06-20T07:34:36.147Z,996.85
2019-06-20T07:35:36.134Z,996.83
2019-06-20T07:36:36.181Z,996.84
2019-06-20T07:37:36.117Z,996.80
2019-06-20T07:38:36.107Z,996.86
2019-06-20T07:39:36.096Z,996.85
2019-06-20T07:40:36.090Z,996.81
2019-06-20T07:41:36.096Z,996.78
2019-06-20T07:42:36.080Z,996.82
2019-06-20T07:43:36.048Z,996.89
2019-06-20T07:44:36.041Z,996.86
2019-06-20T07:45:36.033Z,996.90
2019-06-20T07:46:36.104Z,996.90
2019-06-20T07:47:36.130Z,996.88
2019-06-20T07:48:36.056Z,996.91
2019-06-20T07:49:36.063Z,996.99
2019-06-20T07:50:39.270Z,996.95
2019-06-20T07:51:36.013Z,996.89
2019-06-20T07:52:36.046Z,996.97
2019-06-20T07:53:35.963Z,996.89
2019-06-20T07:54:35.926Z,996.90
2019-06-20T07:55:35.923Z,996.90
2019-06-20T07:56:35.911Z,996.93
2019-06-20T07:57:35.930Z,996.92
2019-06-20T07:58:36.051Z,996.93
2019-06-20T07:59:35.917Z,996.97
2019-06-20T08:00:35.899Z,996.96
2019-06-20T08:01:35.858Z,996.93
2019-06-20T08:02:36.228Z,996.91
2019-06-20T08:03:35.863Z,996.99
2019-06-20T08:04:35.836Z,996.92
2019-06-20T08:05:35.812Z,996.94
2019-06-20T08:06:35.804Z,997.02
2019-06-20T08:07:35.817Z,996.99
2019-06-20T08:08:35.827Z,996.85
2019-06-20T08:09:44.670Z,996.87
2019-06-20T08:10:36.805Z,996.92
2019-06-20T08:11:35.765Z,996.86
2019-06-20T08:12:35.774Z,996.85
2019-06-20T08:13:35.729Z,996.86
2019-06-20T08:14:35.723Z,996.87
2019-06-20T08:15:35.713Z,996.83
2019-06-20T08:16:35.734Z,996.94
2019-06-20T08:17:35.903Z,996.91
2019-06-20T08:18:35.673Z,996.94
2019-06-20T08:19:35.664Z,996.94
2019-06-20T08:20:35.667Z,996.94
2019-06-20T08:21:35.651Z,996.91
2019-06-20T08:22:35.686Z,997.00
2019-06-20T08:23:35.625Z,996.98
2019-06-20T08:24:35.615Z,997.05
2019-06-20T08:25:35.598Z,996.98
2019-06-20T08:26:35.601Z,997.49
2019-06-20T08:27:35.610Z,997.00
2019-06-20T08:28:35.620Z,996.97
2019-06-20T08:29:35.568Z,996.95
2019-06-20T08:30:35.553Z,996.98
2019-06-20T08:31:35.554Z,996.98
2019-06-20T08:32:35.529Z,997.05
2019-06-20T08:33:35.530Z,997.05
2019-06-20T08:34:35.512Z,997.23
2019-06-20T08:35:35.503Z,997.15
2019-06-20T08:36:35.485Z,997.18
2019-06-20T08:37:35.474Z,997.15
2019-06-20T08:38:35.484Z,997.24
2019-06-20T08:39:35.456Z,997.30
2019-06-20T08:40:35.457Z,997.38
2019-06-20T08:41:35.476Z,997.36
2019-06-20T08:42:35.427Z,997.03
2019-06-20T08:43:35.439Z,997.59
2019-06-20T08:44:35.437Z,997.33
2019-06-20T08:45:35.418Z,997.42
2019-06-20T08:46:35.388Z,997.33
2019-06-20T08:47:35.377Z,997.35
2019-06-20T08:48:35.393Z,997.21
2019-06-20T08:49:35.369Z,997.19
2019-06-20T08:50:35.345Z,997.13
2019-06-20T08:51:35.346Z,997.19
2019-06-20T08:52:35.341Z,997.24
2019-06-20T08:53:35.358Z,997.23
2019-06-20T08:54:35.334Z,997.36
2019-06-20T08:55:35.330Z,997.34
2019-06-20T08:56:35.286Z,997.39
2019-06-20T08:57:35.272Z,997.42
2019-06-20T08:58:35.294Z,997.44
2019-06-20T08:59:35.255Z,997.13
2019-06-20T09:00:35.250Z,997.14
2019-06-20T09:01:35.253Z,997.20
2019-06-20T09:02:35.246Z,997.25
2019-06-20T09:03:35.323Z,997.25
2019-06-20T09:04:35.209Z,997.26
2019-06-20T09:05:35.199Z,997.40
2019-06-20T09:06:35.196Z,997.69
2019-06-20T09:07:35.185Z,997.60
2019-06-20T09:08:35.209Z,997.79
2019-06-20T09:09:35.436Z,997.54
2019-06-20T09:10:35.237Z,997.56
2019-06-20T09:11:35.145Z,997.48
2019-06-20T09:12:35.191Z,997.56
2019-06-20T09:13:35.180Z,997.42
2019-06-20T09:14:35.174Z,997.70
2019-06-20T09:15:35.125Z,997.75
2019-06-20T09:16:35.121Z,997.61
2019-06-20T09:17:35.125Z,997.76
2019-06-20T09:18:35.107Z,997.63
2019-06-20T09:19:35.113Z,997.67
2019-06-20T09:20:35.093Z,997.63
2019-06-20T09:21:35.064Z,997.73
2019-06-20T09:22:35.042Z,997.75
2019-06-20T09:23:35.758Z,997.77
2019-06-20T09:24:35.141Z,997.69
2019-06-20T09:25:35.053Z,997.71
2019-06-20T09:26:35.023Z,997.64
2019-06-20T09:27:35.050Z,997.74
2019-06-20T09:28:35.022Z,997.79
2019-06-20T09:29:41.751Z,997.81
2019-06-20T09:30:36.066Z,997.77
2019-06-20T09:31:34.984Z,997.73
2019-06-20T09:32:34.964Z,997.78
2019-06-20T09:33:34.958Z,997.70
2019-06-20T09:34:34.953Z,997.72
2019-06-20T09:35:35.009Z,997.78
2019-06-20T09:36:34.942Z,997.15
2019-06-20T09:37:34.914Z,997.79
2019-06-20T09:38:34.925Z,997.80
2019-06-20T09:39:34.921Z,997.66
2019-06-20T09:40:34.898Z,997.74
2019-06-20T09:41:34.920Z,997.84
2019-06-20T09:42:36.863Z,997.83
2019-06-20T09:43:34.902Z,997.84
2019-06-20T09:44:34.863Z,997.74
2019-06-20T09:45:34.862Z,997.39
2019-06-20T09:46:34.850Z,997.21
2019-06-20T09:47:34.864Z,997.67
2019-06-20T09:48:34.852Z,997.46
2019-06-20T09:49:34.825Z,997.43
2019-06-20T09:50:34.814Z,997.50
2019-06-20T09:51:34.800Z,997.42
2019-06-20T09:52:34.817Z,997.26
2019-06-20T09:53:34.817Z,997.22
2019-06-20T09:54:34.798Z,997.20
2019-06-20T09:55:34.774Z,997.64
2019-06-20T09:56:34.782Z,997.69
2019-06-20T09:57:34.760Z,997.60
2019-06-20T09:58:34.763Z,997.32
2019-06-20T09:59:34.738Z,997.23
2019-06-20T10:00:34.719Z,997.20
2019-06-20T10:01:34.712Z,997.48
2019-06-20T10:02:34.724Z,997.67
2019-06-20T10:03:34.728Z,997.71
2019-06-20T10:04:34.699Z,997.77
2019-06-20T10:05:34.690Z,997.23
2019-06-20T10:06:34.677Z,997.18
2019-06-20T10:07:34.739Z,997.16
2019-06-20T10:08:34.666Z,997.18
2019-06-20T10:09:34.660Z,997.15
2019-06-20T10:10:34.687Z,997.16
2019-06-20T10:11:34.672Z,997.21
2019-06-20T10:12:34.611Z,997.23
2019-06-20T10:13:34.597Z,997.17
2019-06-20T10:14:34.591Z,997.20
2019-06-20T10:15:34.575Z,997.24
2019-06-20T10:16:45.356Z,997.18
2019-06-20T10:17:35.580Z,997.16
2019-06-20T10:18:34.574Z,997.25
2019-06-20T10:19:34.542Z,997.21
2019-06-20T10:20:34.594Z,997.21
2019-06-20T10:21:34.540Z,997.16
2019-06-20T10:22:34.504Z,997.20
2019-06-20T10:23:34.520Z,997.14
2019-06-20T10:24:34.487Z,997.14
2019-06-20T10:25:34.480Z,997.22
2019-06-20T10:26:37.559Z,997.32
2019-06-20T10:27:34.458Z,997.21
2019-06-20T10:28:34.446Z,997.20
2019-06-20T10:29:34.488Z,997.18
2019-06-20T10:30:34.427Z,997.14
2019-06-20T10:31:34.416Z,997.16
2019-06-20T10:32:34.401Z,997.15
2019-06-20T10:33:34.411Z,997.20
2019-06-20T10:34:34.382Z,997.21
2019-06-20T10:35:34.381Z,997.16
2019-06-20T10:36:34.383Z,997.15
2019-06-20T10:37:34.359Z,997.09
2019-06-20T10:38:34.367Z,997.08
2019-06-20T10:39:34.364Z,997.05
2019-06-20T10:40:34.321Z,997.07
2019-06-20T10:41:34.305Z,997.07
2019-06-20T10:42:34.304Z,997.04
2019-06-20T10:43:34.293Z,997.08
2019-06-20T10:44:34.308Z,997.10
2019-06-20T10:45:34.271Z,997.09
2019-06-20T10:46:34.253Z,997.09
2019-06-20T10:47:36.169Z,997.18
2019-06-20T10:48:34.237Z,997.12
2019-06-20T10:49:34.244Z,997.19
2019-06-20T10:50:34.219Z,997.11
2019-06-20T10:51:34.207Z,997.12
2019-06-20T10:52:34.199Z,997.13
2019-06-20T10:53:34.198Z,997.11
2019-06-20T10:54:34.189Z,997.13
2019-06-20T10:55:34.159Z,997.18
2019-06-20T10:56:34.153Z,997.14
2019-06-20T10:57:34.168Z,997.17
2019-06-20T10:58:34.153Z,997.18
2019-06-20T10:59:34.117Z,997.20
2019-06-20T11:00:34.114Z,997.09
2019-06-20T11:01:34.100Z,997.15
2019-06-20T11:02:34.093Z,997.10
2019-06-20T11:03:34.083Z,997.10
2019-06-20T11:04:34.082Z,997.10
2019-06-20T11:05:34.054Z,997.09
2019-06-20T11:06:34.040Z,997.11
2019-06-20T11:07:34.054Z,997.13
2019-06-20T11:08:34.024Z,997.09
2019-06-20T11:09:34.022Z,997.08
2019-06-20T11:10:34.053Z,997.10
2019-06-20T11:11:33.994Z,997.07
2019-06-20T11:12:42.897Z,997.03
2019-06-20T11:13:34.964Z,997.05
2019-06-20T11:14:33.980Z,997.03
2019-06-20T11:15:33.982Z,997.03
2019-06-20T11:16:33.939Z,997.04
2019-06-20T11:17:33.958Z,997.08
2019-06-20T11:18:33.923Z,997.01
2019-06-20T11:19:33.909Z,997.00
2019-06-20T11:20:33.919Z,997.00
2019-06-20T11:21:33.891Z,997.04
2019-06-20T11:22:33.889Z,997.01
2019-06-20T11:23:33.870Z,997.03
2019-06-20T11:24:33.857Z,997.00
2019-06-20T11:25:33.866Z,997.01
2019-06-20T11:26:33.850Z,996.94
2019-06-20T11:27:33.822Z,996.95
2019-06-20T11:28:33.816Z,996.96
2019-06-20T11:29:33.806Z,996.97
2019-06-20T11:30:47.967Z,996.93
2019-06-20T11:31:34.778Z,996.93
2019-06-20T11:32:33.771Z,996.94
2019-06-20T11:33:36.488Z,996.93
2019-06-20T11:34:33.757Z,996.91
2019-06-20T11:35:35.979Z,996.85
2019-06-20T11:36:33.740Z,996.85
2019-06-20T11:37:35.038Z,996.87
2019-06-20T11:38:33.701Z,996.89
2019-06-20T11:39:34.701Z,996.83
2019-06-20T11:40:33.717Z,996.85
2019-06-20T11:41:34.964Z,996.93
2019-06-20T11:42:34.690Z,996.87
2019-06-20T11:43:34.749Z,996.92
2019-06-20T11:44:35.305Z,996.91
2019-06-20T11:45:35.488Z,996.90
2019-06-20T11:46:35.362Z,996.89
2019-06-20T11:47:34.977Z,996.91
2019-06-20T11:48:34.322Z,996.98
2019-06-20T11:49:34.710Z,996.96
2019-06-20T11:50:34.915Z,996.97
2019-06-20T11:51:34.889Z,996.94
2019-06-20T11:52:40.052Z,996.97
2019-06-20T11:53:35.309Z,996.97
2019-06-20T11:54:34.450Z,996.99
2019-06-20T11:55:33.531Z,997.00
2019-06-20T11:56:33.528Z,996.95
2019-06-20T11:57:33.508Z,997.01
2019-06-20T11:58:33.488Z,996.97
2019-06-20T11:59:33.477Z,996.98
2019-06-20T12:00:33.475Z,996.99
2019-06-20T12:01:33.478Z,996.98
2019-06-20T12:02:33.449Z,996.97
2019-06-20T12:03:33.468Z,996.97
2019-06-20T12:04:33.433Z,996.97
2019-06-20T12:05:33.421Z,996.97
2019-06-20T12:06:33.432Z,996.96
2019-06-20T12:07:33.464Z,996.92
2019-06-20T12:08:33.410Z,996.92
2019-06-20T12:09:36.377Z,996.95
2019-06-20T12:10:33.365Z,996.96
2019-06-20T12:11:33.351Z,996.91
2019-06-20T12:12:33.346Z,996.89
2019-06-20T12:13:33.337Z,996.92
2019-06-20T12:14:33.338Z,996.90
2019-06-20T12:15:33.315Z,996.87
2019-06-20T12:16:33.306Z,996.83
2019-06-20T12:17:33.286Z,996.81
2019-06-20T12:18:33.296Z,996.83
2019-06-20T12:19:33.272Z,996.86
2019-06-20T12:20:33.259Z,996.86
2019-06-20T12:21:33.250Z,996.88
2019-06-20T12:22:33.264Z,996.86
2019-06-20T12:23:33.223Z,996.88
2019-06-20T12:24:33.219Z,996.89
2019-06-20T12:25:33.203Z,996.90
2019-06-20T12:26:33.236Z,996.87
2019-06-20T12:27:33.440Z,996.91
2019-06-20T12:28:33.167Z,996.89